createdAt,value
2016-09-30T00:00:28.212Z,14.69
2016-09-30T00:01:29.694Z,14.59
2016-09-30T00:02:28.544Z,14.66
2016-09-30T00:03:28.537Z,14.77
2016-09-30T00:04:28.048Z,14.63
2016-09-30T00:05:29.055Z,14.63
2016-09-30T00:06:29.355Z,14.55
2016-09-30T00:07:29.143Z,14.7
2016-09-30T00:08:29.692Z,14.59
2016-09-30T00:09:29.129Z,14.62
2016-09-30T00:10:29.203Z,14.65
2016-09-30T00:11:28.589Z,14.63
2016-09-30T00:12:28.324Z,14.68
2016-09-30T00:13:29.054Z,14.58
2016-09-30T00:14:29.112Z,14.54
2016-09-30T00:15:29.830Z,14.63
2016-09-30T00:16:29.207Z,14.51
2016-09-30T00:17:28.801Z,14.62
2016-09-30T00:18:29.788Z,14.55
2016-09-30T00:19:28.078Z,14.6
2016-09-30T00:20:30.271Z,14.63
2016-09-30T00:21:29.340Z,14.66
2016-09-30T00:22:29.862Z,14.58
2016-09-30T00:23:30.708Z,14.66
2016-09-30T00:24:29.453Z,14.66
2016-09-30T00:25:29.305Z,14.7
2016-09-30T00:26:29.751Z,14.66
2016-09-30T00:27:29.666Z,14.68
2016-09-30T00:28:29.883Z,14.69
2016-09-30T00:29:29.488Z,14.59
2016-09-30T00:30:29.706Z,14.62
2016-09-30T00:31:29.464Z,14.62
2016-09-30T00:32:30.437Z,14.58
2016-09-30T00:33:30.813Z,14.62
2016-09-30T00:34:29.631Z,14.65
2016-09-30T00:35:29.299Z,14.66
2016-09-30T00:36:29.841Z,14.65
2016-09-30T00:37:30.015Z,14.62
2016-09-30T00:38:29.541Z,14.66
2016-09-30T00:39:30.449Z,14.7
2016-09-30T00:40:30.367Z,14.7
2016-09-30T00:41:30.170Z,14.6
2016-09-30T00:42:29.557Z,14.55
2016-09-30T00:43:29.421Z,14.69
2016-09-30T00:44:29.410Z,14.73
2016-09-30T00:45:30.234Z,14.7
2016-09-30T00:46:29.712Z,14.7
2016-09-30T00:47:29.655Z,14.72
2016-09-30T00:48:29.828Z,14.79
2016-09-30T00:49:29.581Z,14.73
2016-09-30T00:50:29.573Z,14.77
2016-09-30T00:51:29.288Z,14.82
2016-09-30T00:52:30.239Z,14.72
2016-09-30T00:53:29.963Z,14.78
2016-09-30T00:54:30.183Z,14.86
2016-09-30T00:55:30.640Z,14.81
2016-09-30T00:56:29.842Z,14.84
2016-09-30T00:57:29.366Z,14.85
2016-09-30T00:58:30.173Z,14.81
2016-09-30T00:59:31.016Z,14.86
2016-09-30T01:00:30.327Z,14.88
2016-09-30T01:01:30.028Z,14.97
2016-09-30T01:02:29.688Z,14.88
2016-09-30T01:03:30.011Z,14.94
2016-09-30T01:04:30.232Z,14.89
2016-09-30T01:05:30.252Z,14.96
2016-09-30T01:06:30.124Z,14.88
2016-09-30T01:07:29.972Z,14.88
2016-09-30T01:08:31.110Z,14.88
2016-09-30T01:09:30.266Z,14.85
2016-09-30T01:10:30.983Z,14.85
2016-09-30T01:11:31.368Z,14.82
2016-09-30T01:12:30.237Z,14.82
2016-09-30T01:13:30.149Z,14.84
2016-09-30T01:14:30.008Z,14.86
2016-09-30T01:15:32.003Z,14.88
2016-09-30T01:16:30.078Z,14.82
2016-09-30T01:17:30.185Z,14.79
2016-09-30T01:18:31.156Z,14.88
2016-09-30T01:19:30.718Z,14.91
2016-09-30T01:20:30.144Z,14.89
2016-09-30T01:21:30.049Z,14.91
2016-09-30T01:22:30.204Z,14.88
2016-09-30T01:23:30.743Z,14.88
2016-09-30T01:24:30.307Z,15
2016-09-30T01:25:30.577Z,15.07
2016-09-30T01:26:30.034Z,14.99
2016-09-30T01:27:30.236Z,15.04
2016-09-30T01:28:30.688Z,15.02
2016-09-30T01:29:30.546Z,15.04
2016-09-30T01:30:32.007Z,15.04
2016-09-30T01:31:32.020Z,15.04
2016-09-30T01:32:31.257Z,15.07
2016-09-30T01:33:30.616Z,15.02
2016-09-30T01:34:30.787Z,15.03
2016-09-30T01:35:30.968Z,14.96
2016-09-30T01:36:30.794Z,14.92
2016-09-30T01:37:30.371Z,14.86
2016-09-30T01:38:30.607Z,14.94
2016-09-30T01:39:31.595Z,14.94
2016-09-30T01:40:30.754Z,15.02
2016-09-30T01:41:30.503Z,14.89
2016-09-30T01:42:31.117Z,14.86
2016-09-30T01:43:31.397Z,14.86
2016-09-30T01:44:30.426Z,14.84
2016-09-30T01:45:30.812Z,14.88
2016-09-30T01:46:31.369Z,14.88
2016-09-30T01:47:31.083Z,14.85
2016-09-30T01:48:31.321Z,14.85
2016-09-30T01:49:30.727Z,14.82
2016-09-30T01:50:30.782Z,14.85
2016-09-30T01:51:30.431Z,14.82
2016-09-30T01:52:30.965Z,14.73
2016-09-30T01:53:30.929Z,14.82
2016-09-30T01:54:30.719Z,14.77
2016-09-30T01:55:30.963Z,14.77
2016-09-30T01:56:30.866Z,14.79
2016-09-30T01:57:31.284Z,14.82
2016-09-30T01:58:31.220Z,14.69
2016-09-30T01:59:31.322Z,14.79
2016-09-30T02:00:30.577Z,14.73
2016-09-30T02:01:31.271Z,14.78
2016-09-30T02:02:31.863Z,14.62
2016-09-30T02:03:31.388Z,14.77
2016-09-30T02:04:30.747Z,14.68
2016-09-30T02:05:31.773Z,14.65
2016-09-30T02:06:31.504Z,14.65
2016-09-30T02:07:30.722Z,14.63
2016-09-30T02:08:31.593Z,14.69
2016-09-30T02:09:31.349Z,14.66
2016-09-30T02:10:31.849Z,14.7
2016-09-30T02:11:31.559Z,14.72
2016-09-30T02:12:31.883Z,14.69
2016-09-30T02:13:32.033Z,14.73
2016-09-30T02:14:31.604Z,14.78
2016-09-30T02:15:32.235Z,14.72
2016-09-30T02:16:30.897Z,14.72
2016-09-30T02:17:31.727Z,14.72
2016-09-30T02:18:31.542Z,14.77
2016-09-30T02:19:32.732Z,14.7
2016-09-30T02:20:31.548Z,14.66
2016-09-30T02:21:31.124Z,14.73
2016-09-30T02:22:31.574Z,14.7
2016-09-30T02:23:31.752Z,14.81
2016-09-30T02:24:31.980Z,14.66
2016-09-30T02:25:31.977Z,14.7
2016-09-30T02:26:32.352Z,14.68
2016-09-30T02:27:32.562Z,14.7
2016-09-30T02:28:32.579Z,14.73
2016-09-30T02:29:31.616Z,14.68
2016-09-30T02:30:32.023Z,14.7
2016-09-30T02:31:31.801Z,14.68
2016-09-30T02:32:32.157Z,14.72
2016-09-30T02:33:31.842Z,14.68
2016-09-30T02:34:31.647Z,14.6
2016-09-30T02:35:32.299Z,14.66
2016-09-30T02:36:31.488Z,14.66
2016-09-30T02:37:31.421Z,14.58
2016-09-30T02:38:33.057Z,14.65
2016-09-30T02:39:32.462Z,14.7
2016-09-30T02:40:32.438Z,14.65
2016-09-30T02:41:32.939Z,14.68
2016-09-30T02:42:32.081Z,14.62
2016-09-30T02:43:32.041Z,14.68
2016-09-30T02:44:33.106Z,14.54
2016-09-30T02:45:32.424Z,14.51
2016-09-30T02:46:31.778Z,14.48
2016-09-30T02:47:32.458Z,14.51
2016-09-30T02:48:32.469Z,14.51
2016-09-30T02:49:32.709Z,14.55
2016-09-30T02:50:33.163Z,14.55
2016-09-30T02:51:32.200Z,14.53
2016-09-30T02:52:32.203Z,14.58
2016-09-30T02:53:31.907Z,14.55
2016-09-30T02:54:32.098Z,14.54
2016-09-30T02:55:34.216Z,14.53
2016-09-30T02:56:32.690Z,14.55
2016-09-30T02:57:32.451Z,14.53
2016-09-30T02:58:31.896Z,14.62
2016-09-30T02:59:32.348Z,14.51
2016-09-30T03:00:32.875Z,14.51
2016-09-30T03:01:32.592Z,14.48
2016-09-30T03:02:32.523Z,14.53
2016-09-30T03:03:32.599Z,14.58
2016-09-30T03:04:33.077Z,14.54
2016-09-30T03:05:32.969Z,14.5
2016-09-30T03:06:32.977Z,14.51
2016-09-30T03:07:31.836Z,14.6
2016-09-30T03:08:33.248Z,14.53
2016-09-30T03:09:33.081Z,14.55
2016-09-30T03:10:33.282Z,14.62
2016-09-30T03:11:32.583Z,14.53
2016-09-30T03:12:32.951Z,14.53
2016-09-30T03:13:32.289Z,14.55
2016-09-30T03:14:32.735Z,14.53
2016-09-30T03:15:33.033Z,14.58
2016-09-30T03:16:32.934Z,14.51
2016-09-30T03:17:34.525Z,14.54
2016-09-30T03:18:32.121Z,14.5
2016-09-30T03:19:33.241Z,14.58
2016-09-30T03:20:32.653Z,14.65
2016-09-30T03:21:32.384Z,14.66
2016-09-30T03:22:32.883Z,14.6
2016-09-30T03:23:32.282Z,14.65
2016-09-30T03:24:32.958Z,14.54
2016-09-30T03:25:32.404Z,14.54
2016-09-30T03:26:33.687Z,14.53
2016-09-30T03:27:32.934Z,14.51
2016-09-30T03:28:32.619Z,14.66
2016-09-30T03:29:33.155Z,14.69
2016-09-30T03:30:32.839Z,14.68
2016-09-30T03:31:33.132Z,14.7
2016-09-30T03:32:33.076Z,14.66
2016-09-30T03:33:33.088Z,14.73
2016-09-30T03:34:33.494Z,14.68
2016-09-30T03:35:33.469Z,14.65
2016-09-30T03:36:33.327Z,14.7
2016-09-30T03:37:33.099Z,14.66
2016-09-30T03:38:33.406Z,14.66
2016-09-30T03:39:33.699Z,14.69
2016-09-30T03:40:33.602Z,14.62
2016-09-30T03:41:33.027Z,14.6
2016-09-30T03:42:32.538Z,14.66
2016-09-30T03:43:34.013Z,14.54
2016-09-30T03:44:33.199Z,14.54
2016-09-30T03:45:33.733Z,14.62
2016-09-30T03:46:32.443Z,14.63
2016-09-30T03:47:33.687Z,14.63
2016-09-30T03:48:33.610Z,14.51
2016-09-30T03:49:33.403Z,14.51
2016-09-30T03:50:33.393Z,14.58
2016-09-30T03:51:33.113Z,14.58
2016-09-30T03:52:33.456Z,14.66
2016-09-30T03:53:34.247Z,14.66
2016-09-30T03:54:34.559Z,14.66
2016-09-30T03:55:33.418Z,14.63
2016-09-30T03:56:34.281Z,14.7
2016-09-30T03:57:34.383Z,14.6
2016-09-30T03:58:33.715Z,14.63
2016-09-30T03:59:34.700Z,14.59
2016-09-30T04:00:34.058Z,14.65
2016-09-30T04:01:34.618Z,14.7
2016-09-30T04:02:33.215Z,14.62
2016-09-30T04:03:34.684Z,14.69
2016-09-30T04:04:33.610Z,14.69
2016-09-30T04:05:34.620Z,14.66
2016-09-30T04:06:33.463Z,14.63
2016-09-30T04:07:34.591Z,14.62
2016-09-30T04:08:34.486Z,14.45
2016-09-30T04:09:33.698Z,14.55
2016-09-30T04:10:34.511Z,14.53
2016-09-30T04:11:34.290Z,14.48
2016-09-30T04:12:34.638Z,14.48
2016-09-30T04:13:34.056Z,14.53
2016-09-30T04:14:32.622Z,14.53
2016-09-30T04:15:33.225Z,14.58
2016-09-30T04:16:34.443Z,14.48
2016-09-30T04:17:34.180Z,14.44
2016-09-30T04:18:34.576Z,14.45
2016-09-30T04:19:33.532Z,14.48
2016-09-30T04:20:34.417Z,14.37
2016-09-30T04:21:35.373Z,14.36
2016-09-30T04:22:34.352Z,14.4
2016-09-30T04:23:35.203Z,14.36
2016-09-30T04:24:34.002Z,14.4
2016-09-30T04:25:34.480Z,14.43
2016-09-30T04:26:33.512Z,14.36
2016-09-30T04:27:34.573Z,14.4
2016-09-30T04:28:35.324Z,14.4
2016-09-30T04:29:35.055Z,14.37
2016-09-30T04:30:34.928Z,14.26
2016-09-30T04:31:35.254Z,14.25
2016-09-30T04:32:34.982Z,14.22
2016-09-30T04:33:35.242Z,14.28
2016-09-30T04:34:34.641Z,14.22
2016-09-30T04:35:34.831Z,14.1
2016-09-30T04:36:35.547Z,14.17
2016-09-30T04:37:34.259Z,14.23
2016-09-30T04:38:36.007Z,14.17
2016-09-30T04:39:35.223Z,14.22
2016-09-30T04:40:34.512Z,14.18
2016-09-30T04:41:34.876Z,14.23
2016-09-30T04:42:34.623Z,14.28
2016-09-30T04:43:34.960Z,14.29
2016-09-30T04:44:34.952Z,14.33
2016-09-30T04:45:35.347Z,14.36
2016-09-30T04:46:34.784Z,14.43
2016-09-30T04:47:34.355Z,14.41
2016-09-30T04:48:34.715Z,14.5
2016-09-30T04:49:35.358Z,14.51
2016-09-30T04:50:35.124Z,14.47
2016-09-30T04:51:34.354Z,14.59
2016-09-30T04:52:35.184Z,14.55
2016-09-30T04:53:34.704Z,14.58
2016-09-30T04:54:35.010Z,14.55
2016-09-30T04:55:34.599Z,14.48
2016-09-30T04:56:34.817Z,14.51
2016-09-30T04:57:35.318Z,14.5
2016-09-30T04:58:34.441Z,14.55
2016-09-30T04:59:35.516Z,14.65
2016-09-30T05:00:35.399Z,14.54
2016-09-30T05:01:34.795Z,14.48
2016-09-30T05:02:34.784Z,14.62
2016-09-30T05:03:34.815Z,14.54
2016-09-30T05:04:34.165Z,14.54
2016-09-30T05:05:35.680Z,14.55
2016-09-30T05:06:35.444Z,14.68
2016-09-30T05:07:35.385Z,14.73
2016-09-30T05:08:34.679Z,14.73
2016-09-30T05:09:36.029Z,14.85
2016-09-30T05:10:35.261Z,14.69
2016-09-30T05:11:36.590Z,14.73
2016-09-30T05:12:35.801Z,14.72
2016-09-30T05:13:35.109Z,14.72
2016-09-30T05:14:34.655Z,14.79
2016-09-30T05:15:34.544Z,14.7
2016-09-30T05:16:35.141Z,14.66
2016-09-30T05:17:35.428Z,14.6
2016-09-30T05:18:35.388Z,14.58
2016-09-30T05:19:35.042Z,14.53
2016-09-30T05:20:35.192Z,14.51
2016-09-30T05:21:35.784Z,14.63
2016-09-30T05:22:35.925Z,14.66
2016-09-30T05:23:37.298Z,14.66
2016-09-30T05:24:35.262Z,14.68
2016-09-30T05:25:35.699Z,14.66
2016-09-30T05:26:35.751Z,14.73
2016-09-30T05:27:34.655Z,14.65
2016-09-30T05:28:36.471Z,14.7
2016-09-30T05:29:37.255Z,14.66
2016-09-30T05:30:38.163Z,14.7
2016-09-30T05:31:38.205Z,14.66
2016-09-30T05:32:35.804Z,14.66
2016-09-30T05:33:36.273Z,14.63
2016-09-30T05:34:36.038Z,14.77
2016-09-30T05:35:35.762Z,14.85
2016-09-30T05:36:39.120Z,14.96
2016-09-30T05:37:36.950Z,14.84
2016-09-30T05:38:36.340Z,14.96
2016-09-30T05:39:37.521Z,14.85
2016-09-30T05:40:37.710Z,14.89
2016-09-30T05:41:37.805Z,14.91
2016-09-30T05:42:37.044Z,14.86
2016-09-30T05:43:39.341Z,14.84
2016-09-30T05:44:37.392Z,14.86
2016-09-30T05:45:36.431Z,14.88
2016-09-30T05:46:37.337Z,14.81
2016-09-30T05:47:36.915Z,14.89
2016-09-30T05:48:35.754Z,14.81
2016-09-30T05:49:37.135Z,14.86
2016-09-30T05:50:35.346Z,14.89
2016-09-30T05:51:36.071Z,14.85
2016-09-30T05:52:35.695Z,14.86
2016-09-30T05:53:35.789Z,14.86
2016-09-30T05:54:36.593Z,14.84
2016-09-30T05:55:35.953Z,15.02
2016-09-30T05:56:36.429Z,15.06
2016-09-30T05:57:37.519Z,15.06
2016-09-30T05:58:35.804Z,15.06
2016-09-30T05:59:36.209Z,15.11
2016-09-30T06:00:35.850Z,15.07
2016-09-30T06:01:36.074Z,14.99
2016-09-30T06:02:37.372Z,15.14
2016-09-30T06:03:35.428Z,15.06
2016-09-30T06:04:36.327Z,15.15
2016-09-30T06:05:35.760Z,15.11
2016-09-30T06:06:35.910Z,15.04
2016-09-30T06:07:35.730Z,14.99
2016-09-30T06:08:36.116Z,15.03
2016-09-30T06:09:36.430Z,15.02
2016-09-30T06:10:36.613Z,15.03
2016-09-30T06:11:37.576Z,15
2016-09-30T06:12:36.703Z,15.06
2016-09-30T06:13:38.033Z,15
2016-09-30T06:14:37.463Z,15.09
2016-09-30T06:15:36.619Z,15.04
2016-09-30T06:16:35.124Z,15.02
2016-09-30T06:17:35.464Z,15.03
2016-09-30T06:18:35.509Z,15.03
2016-09-30T06:19:35.485Z,15.02
2016-09-30T06:20:35.187Z,15.07
2016-09-30T06:21:35.232Z,15.04
2016-09-30T06:22:35.278Z,15.02
2016-09-30T06:23:35.573Z,15.06
2016-09-30T06:24:35.307Z,15.03
2016-09-30T06:25:35.336Z,15.06
2016-09-30T06:26:35.303Z,15.07
2016-09-30T06:27:35.686Z,15.07
2016-09-30T06:28:36.190Z,15.1
2016-09-30T06:29:35.881Z,15.21
2016-09-30T06:30:36.034Z,15.22
2016-09-30T06:31:35.881Z,15.19
2016-09-30T06:32:36.187Z,15.27
2016-09-30T06:33:36.328Z,15.24
2016-09-30T06:34:36.697Z,15.25
2016-09-30T06:35:36.170Z,15.37
2016-09-30T06:36:36.518Z,15.43
2016-09-30T06:37:37.199Z,15.43
2016-09-30T06:38:37.381Z,15.49
2016-09-30T06:39:36.766Z,15.54
2016-09-30T06:40:37.282Z,15.54
2016-09-30T06:41:36.908Z,15.55
2016-09-30T06:42:37.528Z,15.7
2016-09-30T06:43:37.284Z,15.67
2016-09-30T06:44:36.845Z,15.73
2016-09-30T06:45:37.782Z,15.73
2016-09-30T06:46:37.116Z,15.8
2016-09-30T06:47:37.442Z,15.94
2016-09-30T06:48:36.837Z,15.86
2016-09-30T06:49:37.363Z,15.92
2016-09-30T06:50:37.279Z,15.98
2016-09-30T06:51:37.401Z,16
2016-09-30T06:52:37.622Z,15.98
2016-09-30T06:53:38.127Z,16.01
2016-09-30T06:54:36.564Z,16.01
2016-09-30T06:55:37.683Z,16.01
2016-09-30T06:56:38.380Z,16.05
2016-09-30T06:57:37.995Z,16.13
2016-09-30T06:58:37.082Z,16.15
2016-09-30T06:59:37.272Z,16.12
2016-09-30T07:00:37.383Z,16.17
2016-09-30T07:01:37.893Z,16.23
2016-09-30T07:02:37.930Z,16.31
2016-09-30T07:03:37.814Z,16.32
2016-09-30T07:04:37.937Z,16.36
2016-09-30T07:05:37.279Z,16.41
2016-09-30T07:06:37.873Z,16.42
2016-09-30T07:07:38.702Z,16.43
2016-09-30T07:08:38.348Z,16.53
2016-09-30T07:09:37.668Z,16.46
2016-09-30T07:10:37.292Z,16.56
2016-09-30T07:11:37.903Z,16.56
2016-09-30T07:12:37.751Z,16.43
2016-09-30T07:13:38.139Z,16.49
2016-09-30T07:14:37.430Z,16.51
2016-09-30T07:15:37.991Z,16.54
2016-09-30T07:16:37.453Z,16.49
2016-09-30T07:17:37.757Z,16.6
2016-09-30T07:18:37.784Z,16.58
2016-09-30T07:19:37.924Z,16.66
2016-09-30T07:20:38.128Z,16.64
2016-09-30T07:21:38.058Z,16.86
2016-09-30T07:22:38.746Z,17.05
2016-09-30T07:23:38.682Z,17.06
2016-09-30T07:24:37.264Z,17.11
2016-09-30T07:25:39.562Z,17.05
2016-09-30T07:26:38.800Z,17.19
2016-09-30T07:27:37.548Z,17.06
2016-09-30T07:28:38.235Z,17.16
2016-09-30T07:29:37.796Z,17.14
2016-09-30T07:30:38.734Z,17.16
2016-09-30T07:31:38.337Z,16.97
2016-09-30T07:32:39.154Z,16.96
2016-09-30T07:33:38.818Z,16.99
2016-09-30T07:34:39.062Z,16.91
2016-09-30T07:35:38.050Z,16.97
2016-09-30T07:36:38.118Z,16.96
2016-09-30T07:37:38.901Z,16.99
2016-09-30T07:38:38.021Z,17.14
2016-09-30T07:39:38.315Z,17.12
2016-09-30T07:40:39.214Z,17.14
2016-09-30T07:41:39.130Z,17.06
2016-09-30T07:42:38.054Z,17.3
2016-09-30T07:43:38.916Z,17.44
2016-09-30T07:44:38.633Z,17.64
2016-09-30T07:45:38.253Z,17.71
2016-09-30T07:46:39.274Z,17.86
2016-09-30T07:47:38.017Z,18
2016-09-30T07:48:39.170Z,17.86
2016-09-30T07:49:38.387Z,17.7
2016-09-30T07:50:38.581Z,17.68
2016-09-30T07:51:39.784Z,17.78
2016-09-30T07:52:37.925Z,17.92
2016-09-30T07:53:38.236Z,18.03
2016-09-30T07:54:38.059Z,18.04
2016-09-30T07:55:37.890Z,18.04
2016-09-30T07:56:38.644Z,17.95
2016-09-30T07:57:38.930Z,17.86
2016-09-30T07:58:38.100Z,17.85
2016-09-30T07:59:38.676Z,17.74
2016-09-30T08:00:38.260Z,17.7
2016-09-30T08:01:39.526Z,17.7
2016-09-30T08:02:39.453Z,17.54
2016-09-30T08:03:37.941Z,17.64
2016-09-30T08:04:39.413Z,17.59
2016-09-30T08:05:39.150Z,17.64
2016-09-30T08:06:39.613Z,17.64
2016-09-30T08:07:38.601Z,17.71
2016-09-30T08:08:38.695Z,17.65
2016-09-30T08:09:39.905Z,17.48
2016-09-30T08:10:38.091Z,17.45
2016-09-30T08:11:39.890Z,17.59
2016-09-30T08:12:39.171Z,17.74
2016-09-30T08:13:39.471Z,17.85
2016-09-30T08:14:38.889Z,17.97
2016-09-30T08:15:39.964Z,17.86
2016-09-30T08:16:39.492Z,17.72
2016-09-30T08:17:39.824Z,17.78
2016-09-30T08:18:38.497Z,17.79
2016-09-30T08:19:39.908Z,17.97
2016-09-30T08:20:39.137Z,18.03
2016-09-30T08:21:40.655Z,17.86
2016-09-30T08:22:39.190Z,17.87
2016-09-30T08:23:39.822Z,17.82
2016-09-30T08:24:39.824Z,17.9
2016-09-30T08:25:40.644Z,17.85
2016-09-30T08:26:39.856Z,17.87
2016-09-30T08:27:39.180Z,17.86
2016-09-30T08:28:39.622Z,17.98
2016-09-30T08:29:39.425Z,18
2016-09-30T08:30:40.656Z,17.85
2016-09-30T08:31:39.777Z,17.97
2016-09-30T08:32:39.689Z,17.97
2016-09-30T08:33:39.871Z,17.79
2016-09-30T08:34:38.703Z,17.86
2016-09-30T08:35:38.851Z,17.83
2016-09-30T08:36:39.336Z,17.86
2016-09-30T08:37:39.795Z,17.82
2016-09-30T08:38:39.788Z,17.79
2016-09-30T08:39:39.053Z,17.83
2016-09-30T08:40:40.493Z,17.85
2016-09-30T08:41:39.651Z,17.7
2016-09-30T08:42:39.697Z,17.65
2016-09-30T08:43:39.400Z,17.56
2016-09-30T08:44:39.966Z,17.7
2016-09-30T08:45:40.705Z,17.83
2016-09-30T08:46:39.969Z,17.72
2016-09-30T08:47:39.424Z,17.65
2016-09-30T08:48:39.233Z,17.65
2016-09-30T08:49:40.154Z,17.71
2016-09-30T08:50:39.799Z,17.57
2016-09-30T08:51:40.065Z,17.51
2016-09-30T08:52:39.953Z,17.74
2016-09-30T08:53:40.089Z,17.72
2016-09-30T08:54:39.898Z,17.71
2016-09-30T08:55:40.135Z,17.78
2016-09-30T08:56:39.868Z,17.86
2016-09-30T08:57:40.705Z,18
2016-09-30T08:58:39.790Z,18.1
2016-09-30T08:59:40.507Z,18.08
2016-09-30T09:00:40.288Z,18.04
2016-09-30T09:01:40.618Z,18
2016-09-30T09:02:40.439Z,18.07
2016-09-30T09:03:40.061Z,18.26
2016-09-30T09:04:40.435Z,18.4
2016-09-30T09:05:40.577Z,18.55
2016-09-30T09:06:40.400Z,18.88
2016-09-30T09:07:40.352Z,19.37
2016-09-30T09:08:40.996Z,19.73
2016-09-30T09:09:40.739Z,19.81
2016-09-30T09:10:40.648Z,19.84
2016-09-30T09:11:41.089Z,20.13
2016-09-30T09:12:40.122Z,19.89
2016-09-30T09:13:40.280Z,19.69
2016-09-30T09:14:39.719Z,19.56
2016-09-30T09:15:39.927Z,19.52
2016-09-30T09:16:40.699Z,20.09
2016-09-30T09:17:40.001Z,20.51
2016-09-30T09:18:41.036Z,20.7
2016-09-30T09:19:40.624Z,20.55
2016-09-30T09:20:39.459Z,20.85
2016-09-30T09:21:40.255Z,20.97
2016-09-30T09:22:40.227Z,20.72
2016-09-30T09:23:40.223Z,20.78
2016-09-30T09:24:40.511Z,21.07
2016-09-30T09:25:39.823Z,20.78
2016-09-30T09:26:41.023Z,20.69
2016-09-30T09:27:41.027Z,20.37
2016-09-30T09:28:41.560Z,21.06
2016-09-30T09:29:40.781Z,21.62
2016-09-30T09:30:41.090Z,21.91
2016-09-30T09:31:41.340Z,21.35
2016-09-30T09:32:41.069Z,21.7
2016-09-30T09:33:41.684Z,21.35
2016-09-30T09:34:40.963Z,21.66
2016-09-30T09:35:40.209Z,21.55
2016-09-30T09:36:41.380Z,21.39
2016-09-30T09:37:41.045Z,21.43
2016-09-30T09:38:40.806Z,21.62
2016-09-30T09:39:41.452Z,20.97
2016-09-30T09:40:40.357Z,21.06
2016-09-30T09:41:41.653Z,21.32
2016-09-30T09:42:41.616Z,21.4
2016-09-30T09:43:40.627Z,21.36
2016-09-30T09:44:40.247Z,20.95
2016-09-30T09:45:41.829Z,20.92
2016-09-30T09:46:40.647Z,21.14
2016-09-30T09:47:41.094Z,20.99
2016-09-30T09:48:40.996Z,20.74
2016-09-30T09:49:42.063Z,20.82
2016-09-30T09:50:40.758Z,20.72
2016-09-30T09:51:40.779Z,20.62
2016-09-30T09:52:41.560Z,20.88
2016-09-30T09:53:42.499Z,21.03
2016-09-30T09:54:41.333Z,21.14
2016-09-30T09:55:41.351Z,21.3
2016-09-30T09:56:41.909Z,20.88
2016-09-30T09:57:41.005Z,20.63
2016-09-30T09:58:41.410Z,20.56
2016-09-30T09:59:41.132Z,21
2016-09-30T10:00:42.866Z,20.85
2016-09-30T10:01:41.112Z,21.21
2016-09-30T10:02:41.226Z,21.33
2016-09-30T10:03:41.665Z,21.27
2016-09-30T10:04:42.479Z,21.11
2016-09-30T10:05:43.015Z,20.56
2016-09-30T10:06:42.205Z,20.51
2016-09-30T10:07:41.845Z,20.5
2016-09-30T10:08:42.470Z,20.4
2016-09-30T10:09:41.544Z,20.34
2016-09-30T10:10:41.683Z,20.44
2016-09-30T10:11:42.761Z,20.41
2016-09-30T10:12:42.931Z,20.55
2016-09-30T10:13:42.930Z,20.58
2016-09-30T10:14:42.758Z,20.8
2016-09-30T10:15:42.713Z,21.32
2016-09-30T10:16:42.274Z,21.48
2016-09-30T10:17:42.330Z,21.52
2016-09-30T10:18:42.199Z,21.98
2016-09-30T10:19:42.022Z,22.06
2016-09-30T10:20:42.343Z,21.85
2016-09-30T10:21:42.540Z,21.82
2016-09-30T10:22:42.336Z,21.51
2016-09-30T10:23:42.026Z,21.52
2016-09-30T10:24:42.442Z,21.14
2016-09-30T10:25:41.771Z,21.32
2016-09-30T10:26:41.756Z,21.11
2016-09-30T10:27:42.124Z,21.15
2016-09-30T10:28:42.155Z,21.24
2016-09-30T10:29:42.757Z,21.43
2016-09-30T10:30:42.148Z,21.05
2016-09-30T10:31:42.382Z,21.37
2016-09-30T10:32:42.689Z,20.88
2016-09-30T10:33:42.425Z,21.14
2016-09-30T10:34:42.113Z,21.51
2016-09-30T10:35:42.324Z,21.64
2016-09-30T10:36:42.243Z,21.55
2016-09-30T10:37:42.624Z,21.69
2016-09-30T10:38:42.326Z,22.44
2016-09-30T10:39:43.424Z,22.88
2016-09-30T10:40:42.752Z,22.78
2016-09-30T10:41:43.482Z,22.96
2016-09-30T10:42:43.087Z,22.6
2016-09-30T10:43:42.137Z,22.69
2016-09-30T10:44:43.256Z,22.2
2016-09-30T10:45:42.473Z,22.47
2016-09-30T10:46:42.447Z,22.11
2016-09-30T10:47:43.281Z,21.67
2016-09-30T10:48:42.937Z,21.96
2016-09-30T10:49:42.647Z,21.72
2016-09-30T10:50:42.422Z,21.69
2016-09-30T10:51:42.343Z,21.52
2016-09-30T10:52:42.649Z,21.8
2016-09-30T10:53:42.688Z,22.08
2016-09-30T10:54:43.196Z,22.35
2016-09-30T10:55:43.304Z,22.54
2016-09-30T10:56:43.179Z,22.48
2016-09-30T10:57:44.388Z,22.6
2016-09-30T10:58:43.357Z,22.57
2016-09-30T10:59:42.536Z,22.87
2016-09-30T11:00:42.309Z,22.98
2016-09-30T11:01:43.638Z,23.58
2016-09-30T11:02:42.923Z,24.2
2016-09-30T11:03:43.733Z,24.51
2016-09-30T11:04:43.355Z,24.42
2016-09-30T11:05:42.714Z,24.39
2016-09-30T11:06:43.278Z,24.47
2016-09-30T11:07:44.632Z,24.57
2016-09-30T11:08:43.273Z,24.57
2016-09-30T11:09:42.877Z,24.58
2016-09-30T11:10:43.982Z,24.69
2016-09-30T11:11:42.919Z,24.86
2016-09-30T11:12:43.661Z,24.91
2016-09-30T11:13:43.683Z,24.74
2016-09-30T11:15:43.656Z,24.53
2016-09-30T11:16:43.724Z,24.24
2016-09-30T11:17:44.784Z,24.36
2016-09-30T11:18:43.770Z,23.95
2016-09-30T11:19:43.275Z,23.4
2016-09-30T11:20:43.762Z,23.28
2016-09-30T11:21:43.483Z,23.56
2016-09-30T11:22:43.618Z,23.32
2016-09-30T11:23:43.150Z,23.27
2016-09-30T11:24:43.648Z,22.91
2016-09-30T11:25:43.754Z,22.73
2016-09-30T11:26:43.703Z,21.96
2016-09-30T11:27:44.090Z,21.58
2016-09-30T11:28:43.200Z,21.61
2016-09-30T11:29:45.019Z,21.35
2016-09-30T11:30:43.972Z,21.61
2016-09-30T11:31:44.381Z,21.67
2016-09-30T11:32:44.263Z,21.73
2016-09-30T11:33:44.406Z,21.99
2016-09-30T11:34:44.013Z,22.48
2016-09-30T11:35:45.150Z,22.72
2016-09-30T11:36:43.812Z,22.41
2016-09-30T11:37:44.838Z,21.88
2016-09-30T11:38:44.159Z,21.99
2016-09-30T11:39:45.016Z,22.35
2016-09-30T11:40:43.982Z,22.3
2016-09-30T11:41:43.861Z,22.57
2016-09-30T11:42:44.482Z,22.47
2016-09-30T11:43:45.422Z,22.18
2016-09-30T11:44:45.610Z,21.7
2016-09-30T11:45:45.543Z,21.62
2016-09-30T11:46:44.971Z,21.37
2016-09-30T11:47:45.921Z,20.93
2016-09-30T11:48:44.436Z,21.45
2016-09-30T11:49:45.560Z,21.75
2016-09-30T11:50:44.045Z,21.37
2016-09-30T11:51:45.036Z,20.78
2016-09-30T11:52:44.914Z,20.72
2016-09-30T11:53:44.187Z,20.85
2016-09-30T11:54:43.993Z,20.52
2016-09-30T11:55:44.444Z,20.43
2016-09-30T11:56:45.535Z,20.51
2016-09-30T11:57:44.710Z,20.56
2016-09-30T11:58:45.261Z,20.56
2016-09-30T11:59:45.368Z,20.59
2016-09-30T12:00:45.476Z,20.39
2016-09-30T12:01:45.692Z,20.25
2016-09-30T12:02:45.027Z,20.13
2016-09-30T12:03:44.747Z,20.26
2016-09-30T12:04:45.256Z,20.11
2016-09-30T12:05:45.596Z,19.96
2016-09-30T12:06:45.277Z,20
2016-09-30T12:07:45.064Z,19.95
2016-09-30T12:08:45.187Z,20.16
2016-09-30T12:09:46.702Z,20.13
2016-09-30T12:10:45.210Z,20.24
2016-09-30T12:11:46.752Z,20.18
2016-09-30T12:12:44.878Z,20.36
2016-09-30T12:13:47.079Z,20.21
2016-09-30T12:14:45.291Z,20.34
2016-09-30T12:15:45.802Z,20.24
2016-09-30T12:16:45.285Z,20.32
2016-09-30T12:17:45.864Z,20.43
2016-09-30T12:18:46.108Z,20.36
2016-09-30T12:19:45.363Z,20.4
2016-09-30T12:20:46.051Z,20.29
2016-09-30T12:21:44.922Z,20.1
2016-09-30T12:22:46.125Z,19.99
2016-09-30T12:23:45.223Z,19.95
2016-09-30T12:24:45.458Z,19.82
2016-09-30T12:25:45.410Z,19.69
2016-09-30T12:26:46.159Z,19.71
2016-09-30T12:27:45.191Z,19.81
2016-09-30T12:28:46.252Z,19.85
2016-09-30T12:29:46.002Z,19.95
2016-09-30T12:30:45.190Z,20.24
2016-09-30T12:31:45.273Z,20.26
2016-09-30T12:32:45.460Z,19.95
2016-09-30T12:33:46.102Z,19.89
2016-09-30T12:34:46.722Z,19.79
2016-09-30T12:35:45.199Z,19.81
2016-09-30T12:36:46.577Z,19.91
2016-09-30T12:37:47.689Z,20.14
2016-09-30T12:38:46.109Z,20.36
2016-09-30T12:39:45.890Z,20.36
2016-09-30T12:40:45.217Z,20.47
2016-09-30T12:41:46.264Z,20.32
2016-09-30T12:42:46.090Z,20.29
2016-09-30T12:43:47.547Z,20.25
2016-09-30T12:44:46.305Z,20.41
2016-09-30T12:45:46.081Z,20.31
2016-09-30T12:46:46.407Z,20.32
2016-09-30T12:47:46.672Z,20.31
2016-09-30T12:48:46.356Z,20.52
2016-09-30T12:49:45.864Z,20.95
2016-09-30T12:50:46.397Z,21.15
2016-09-30T12:51:46.709Z,21.05
2016-09-30T12:52:45.544Z,21.14
2016-09-30T12:53:48.039Z,20.56
2016-09-30T12:54:46.771Z,20.82
2016-09-30T12:55:46.306Z,21.2
2016-09-30T12:56:46.742Z,21.4